createdAt,value
2023-01-25T00:00:49.473Z,126.95
2023-01-25T00:03:17.549Z,162.82
2023-01-25T00:05:45.593Z,161.10
2023-01-25T00:08:13.622Z,161.93
2023-01-25T00:10:41.617Z,156.57
2023-01-25T00:13:09.641Z,162.60
2023-01-25T00:15:37.629Z,156.95
2023-01-25T00:18:07.515Z,161.50
2023-01-25T00:20:35.463Z,141.82
2023-01-25T00:23:03.468Z,125.07
2023-01-25T00:25:31.439Z,161.93
2023-01-25T00:27:59.398Z,160.50
2023-01-25T00:30:27.438Z,155.00
2023-01-25T00:33:03.136Z,124.68
2023-01-25T00:35:33.428Z,158.77
2023-01-25T00:38:03.561Z,142.27
2023-01-25T00:40:31.625Z,121.90
2023-01-25T00:43:01.706Z,139.93
2023-01-25T00:45:29.712Z,154.48
2023-01-25T00:47:57.787Z,139.50
2023-01-25T00:50:26.004Z,154.07
2023-01-25T00:52:55.397Z,161.68
2023-01-25T00:55:23.721Z,149.77
2023-01-25T00:57:51.708Z,151.73
2023-01-25T01:00:19.925Z,148.68
2023-01-25T01:02:48.565Z,156.00
2023-01-25T01:05:16.794Z,165.35
2023-01-25T01:07:45.018Z,149.95
2023-01-25T01:10:15.227Z,149.52
2023-01-25T01:12:43.279Z,154.45
2023-01-25T01:15:12.494Z,153.23
2023-01-25T01:17:40.507Z,162.30
2023-01-25T01:20:09.389Z,140.75
2023-01-25T01:22:37.388Z,160.38
2023-01-25T01:25:06.394Z,147.38
2023-01-25T01:27:36.310Z,150.98
2023-01-25T01:30:04.538Z,134.90
2023-01-25T01:32:32.841Z,151.85
2023-01-25T01:35:00.923Z,130.32
2023-01-25T01:37:28.890Z,154.35
2023-01-25T01:39:56.889Z,109.88
2023-01-25T01:42:24.845Z,145.40
2023-01-25T01:44:56.021Z,139.38
2023-01-25T01:47:29.934Z,160.55
2023-01-25T01:50:07.160Z,151.48
2023-01-25T01:52:38.683Z,163.93
2023-01-25T01:55:10.391Z,155.63
2023-01-25T01:57:42.584Z,108.20
2023-01-25T02:00:17.461Z,146.82
2023-01-25T02:02:47.370Z,137.75
2023-01-25T02:05:23.699Z,141.30
2023-01-25T02:07:54.728Z,141.32
2023-01-25T02:10:25.322Z,147.98
2023-01-25T02:12:56.719Z,134.50
2023-01-25T02:15:29.839Z,161.10
2023-01-25T02:17:57.832Z,142.15
2023-01-25T02:20:31.243Z,154.52
2023-01-25T02:23:04.784Z,148.00
2023-01-25T02:25:34.427Z,153.55
2023-01-25T02:28:08.304Z,148.63
2023-01-25T02:30:36.475Z,148.10
2023-01-25T02:33:04.550Z,146.32
2023-01-25T02:35:41.622Z,144.40
2023-01-25T02:38:11.409Z,166.73
2023-01-25T02:40:46.411Z,154.23
2023-01-25T02:43:15.964Z,144.82
2023-01-25T02:45:47.442Z,199.07
2023-01-25T02:48:15.545Z,152.02
2023-01-25T02:50:43.496Z,140.05
2023-01-25T02:53:12.215Z,152.90
2023-01-25T02:55:41.515Z,151.80
2023-01-25T02:58:09.913Z,164.35
2023-01-25T03:00:37.941Z,144.88
2023-01-25T03:03:06.039Z,148.75
2023-01-25T03:05:34.804Z,146.95
2023-01-25T03:08:02.961Z,171.38
2023-01-25T03:10:31.015Z,145.98
2023-01-25T03:13:00.695Z,155.18
2023-01-25T03:15:28.998Z,147.65
2023-01-25T03:17:57.725Z,152.27
2023-01-25T03:20:25.873Z,148.45
2023-01-25T03:22:54.004Z,146.48
2023-01-25T03:25:23.526Z,144.57
2023-01-25T03:28:01.068Z,160.00
2023-01-25T03:30:29.544Z,149.40
2023-01-25T03:32:57.694Z,123.65
2023-01-25T03:35:25.917Z,139.50
2023-01-25T03:37:55.044Z,151.35
2023-01-25T03:40:24.087Z,147.20
2023-01-25T03:42:53.678Z,140.07
2023-01-25T03:45:23.133Z,149.63
2023-01-25T03:47:51.668Z,162.55
2023-01-25T03:50:20.601Z,147.65
2023-01-25T03:52:52.593Z,157.65
2023-01-25T03:55:20.601Z,149.02
2023-01-25T03:57:49.903Z,126.25
2023-01-25T04:00:20.052Z,149.63
2023-01-25T04:02:57.624Z,164.98
2023-01-25T04:05:25.918Z,159.88
2023-01-25T04:07:54.559Z,164.68
2023-01-25T04:10:30.788Z,151.32
2023-01-25T04:12:58.864Z,149.90
2023-01-25T04:15:27.268Z,110.50
2023-01-25T04:17:59.695Z,160.65
2023-01-25T04:20:29.084Z,154.40
2023-01-25T04:22:57.727Z,161.60
2023-01-25T04:25:32.171Z,164.10
2023-01-25T04:28:00.523Z,162.88
2023-01-25T04:30:28.637Z,150.88
2023-01-25T04:32:56.957Z,162.40
2023-01-25T04:35:31.560Z,156.98
2023-01-25T04:38:02.118Z,163.18
2023-01-25T04:40:37.807Z,155.23
2023-01-25T04:43:07.371Z,152.32
2023-01-25T04:45:36.555Z,162.35
2023-01-25T04:48:10.694Z,160.05
2023-01-25T04:50:46.476Z,161.65
2023-01-25T04:53:15.270Z,161.50
2023-01-25T04:58:14.645Z,207.27
2023-01-25T05:00:44.385Z,189.07
2023-01-25T05:03:12.941Z,142.85
2023-01-25T05:05:47.286Z,198.82
2023-01-25T05:08:18.822Z,193.90
2023-01-25T05:10:47.390Z,190.75
2023-01-25T05:13:30.648Z,198.20
2023-01-25T05:16:14.467Z,201.80
2023-01-25T05:18:48.768Z,202.52
2023-01-25T05:21:47.283Z,199.40
2023-01-25T05:24:15.470Z,207.88
2023-01-25T05:27:01.248Z,204.52
2023-01-25T05:29:39.846Z,210.02
2023-01-25T05:32:11.200Z,204.70
2023-01-25T05:34:40.072Z,213.32
2023-01-25T05:37:10.606Z,214.48
2023-01-25T05:39:42.356Z,217.02
2023-01-25T05:42:13.745Z,204.13
2023-01-25T05:44:45.993Z,204.05
2023-01-25T05:47:17.269Z,196.95
2023-01-25T05:51:51.740Z,195.90
2023-01-25T05:54:21.395Z,206.85
2023-01-25T05:56:58.825Z,201.32
2023-01-25T05:59:26.980Z,198.90
2023-01-25T06:01:56.560Z,204.65
2023-01-25T06:04:24.575Z,201.95
2023-01-25T06:06:53.971Z,211.05
2023-01-25T06:09:22.433Z,210.68
2023-01-25T06:11:51.715Z,209.98
2023-01-25T06:14:20.183Z,202.02
2023-01-25T06:16:48.293Z,198.57
2023-01-25T06:19:46.144Z,211.27
2023-01-25T06:22:24.242Z,200.63
2023-01-25T06:24:52.339Z,211.52
2023-01-25T06:28:58.161Z,207.93
2023-01-25T06:31:26.645Z,199.88
2023-01-25T06:33:55.029Z,203.55
2023-01-25T06:36:24.134Z,215.00
2023-01-25T06:38:53.105Z,184.18
2023-01-25T06:41:21.568Z,204.57
2023-01-25T06:43:52.107Z,211.52
2023-01-25T06:46:21.513Z,188.27
2023-01-25T06:48:49.518Z,189.77
2023-01-25T06:51:18.311Z,206.13
2023-01-25T06:53:47.665Z,186.45
2023-01-25T06:56:18.332Z,187.88
2023-01-25T06:58:47.140Z,195.07
2023-01-25T07:01:19.840Z,199.27
2023-01-25T07:03:50.983Z,207.57
2023-01-25T07:06:19.921Z,195.18
2023-01-25T07:08:48.626Z,194.05
2023-01-25T07:11:18.972Z,189.95
2023-01-25T07:13:48.216Z,196.32
2023-01-25T07:16:18.171Z,201.95
2023-01-25T07:18:46.538Z,203.27
2023-01-25T07:21:17.649Z,198.05
2023-01-25T07:23:45.889Z,197.55
2023-01-25T07:26:18.545Z,210.10
2023-01-25T07:28:47.266Z,188.43
2023-01-25T07:31:16.308Z,194.90
2023-01-25T07:33:44.794Z,183.32
2023-01-25T07:36:12.863Z,193.95
2023-01-25T07:38:42.337Z,199.73
2023-01-25T07:41:10.963Z,210.20
2023-01-25T07:43:38.983Z,205.63
2023-01-25T07:46:11.220Z,215.15
2023-01-25T07:48:40.336Z,191.93
2023-01-25T07:51:22.653Z,202.45
2023-01-25T07:53:54.119Z,196.48
2023-01-25T07:56:23.586Z,207.23
2023-01-25T07:58:53.435Z,210.48
2023-01-25T08:01:22.777Z,192.48
2023-01-25T08:03:51.677Z,213.02
2023-01-25T08:06:27.353Z,210.82
2023-01-25T08:08:57.446Z,196.15
2023-01-25T08:11:26.833Z,199.05
2023-01-25T08:13:55.106Z,204.75
2023-01-25T08:16:25.325Z,206.32
2023-01-25T08:18:55.360Z,202.98
2023-01-25T08:21:25.518Z,205.35
2023-01-25T08:23:53.610Z,202.90
2023-01-25T08:26:22.989Z,204.52
2023-01-25T08:28:53.699Z,197.30
2023-01-25T08:31:24.128Z,207.75
2023-01-25T08:33:52.949Z,204.43
2023-01-25T08:36:24.193Z,206.50
2023-01-25T08:38:56.016Z,202.30
2023-01-25T08:41:26.094Z,203.20
2023-01-25T08:43:55.398Z,201.88
2023-01-25T08:46:24.763Z,198.55
2023-01-25T08:48:56.085Z,211.20
2023-01-25T08:51:24.682Z,198.70
2023-01-25T08:53:52.670Z,210.60
2023-01-25T08:56:20.810Z,210.30
2023-01-25T08:58:51.400Z,199.07
2023-01-25T09:01:21.183Z,213.15
2023-01-25T09:03:50.796Z,207.95
2023-01-25T09:06:19.821Z,218.02
2023-01-25T09:08:48.286Z,194.55
2023-01-25T09:11:20.212Z,221.57
2023-01-25T09:13:48.989Z,194.70
2023-01-25T09:16:22.750Z,209.45
2023-01-25T09:18:51.459Z,205.05
2023-01-25T09:21:20.050Z,199.10
2023-01-25T09:23:57.514Z,205.68
2023-01-25T09:26:33.060Z,203.82
2023-01-25T09:29:01.363Z,196.73
2023-01-25T09:31:31.085Z,207.30
2023-01-25T09:34:02.282Z,216.80
2023-01-25T09:36:30.579Z,205.35
2023-01-25T09:38:58.663Z,212.65
2023-01-25T09:41:40.136Z,199.13
2023-01-25T09:44:19.947Z,185.10
2023-01-25T09:46:52.692Z,177.35
2023-01-25T09:49:34.220Z,195.00
2023-01-25T09:52:17.873Z,189.90
2023-01-25T09:54:47.836Z,196.57
2023-01-25T09:57:18.990Z,194.45
2023-01-25T09:59:49.410Z,189.68
2023-01-25T10:02:34.636Z,190.68
2023-01-25T10:05:09.379Z,203.43
2023-01-25T10:07:51.276Z,202.15
2023-01-25T10:10:24.187Z,206.18
2023-01-25T10:12:52.258Z,194.50
2023-01-25T10:15:23.605Z,198.43
2023-01-25T10:18:00.480Z,210.05
2023-01-25T10:20:35.651Z,210.05
2023-01-25T10:23:28.961Z,207.73
2023-01-25T10:25:59.698Z,199.80
2023-01-25T10:28:45.932Z,204.75
2023-01-25T10:31:20.093Z,212.63
2023-01-25T10:33:50.410Z,214.48
2023-01-25T10:36:22.576Z,203.02
2023-01-25T10:38:52.186Z,218.27
2023-01-25T10:41:24.964Z,207.77
2023-01-25T10:44:13.174Z,211.85
2023-01-25T10:46:42.469Z,219.65
2023-01-25T10:49:24.913Z,212.65
2023-01-25T10:51:53.263Z,203.63
2023-01-25T10:54:24.021Z,212.90
2023-01-25T10:56:53.429Z,198.23
2023-01-25T10:59:25.431Z,211.55
2023-01-25T11:01:54.057Z,205.63
2023-01-25T11:04:33.208Z,203.25
2023-01-25T11:07:02.625Z,203.18
2023-01-25T11:09:33.581Z,196.13
2023-01-25T11:12:03.047Z,197.45
2023-01-25T11:14:32.726Z,221.18
2023-01-25T11:17:03.078Z,196.30
2023-01-25T11:19:35.925Z,207.88
2023-01-25T11:22:06.420Z,184.32
2023-01-25T11:24:36.149Z,160.80
2023-01-25T11:27:18.512Z,187.90
2023-01-25T11:29:47.764Z,179.88
2023-01-25T11:32:22.532Z,207.32
2023-01-25T11:34:52.405Z,185.48
2023-01-25T11:37:33.996Z,204.68
2023-01-25T11:40:15.948Z,207.70
2023-01-25T11:42:58.450Z,196.73
2023-01-25T11:45:52.684Z,212.57
2023-01-25T11:48:46.313Z,220.43
2023-01-25T11:51:24.974Z,200.52
2023-01-25T11:54:27.820Z,214.88
2023-01-25T11:57:00.032Z,211.23
2023-01-25T11:59:54.883Z,208.18
2023-01-25T12:02:46.815Z,209.65
2023-01-25T12:05:28.612Z,192.25
2023-01-25T12:08:10.030Z,214.20
2023-01-25T12:10:44.334Z,233.77
2023-01-25T12:13:20.891Z,218.63
2023-01-25T12:16:06.030Z,228.05
2023-01-25T12:18:58.246Z,222.98
2023-01-25T12:21:41.205Z,221.07
2023-01-25T12:24:33.398Z,221.88
2023-01-25T12:27:12.417Z,228.98
2023-01-25T12:29:45.728Z,224.82
2023-01-25T12:32:20.389Z,215.57
2023-01-25T12:34:52.208Z,220.82
2023-01-25T12:37:25.152Z,234.23
2023-01-25T12:39:59.539Z,225.48
2023-01-25T12:42:33.718Z,212.50
2023-01-25T12:45:06.036Z,223.52
2023-01-25T12:47:39.109Z,217.10
2023-01-25T12:50:17.000Z,217.93
2023-01-25T12:52:50.391Z,221.63
2023-01-25T12:55:20.694Z,209.32
2023-01-25T12:57:57.108Z,224.77
2023-01-25T13:00:34.245Z,229.93
2023-01-25T13:03:13.158Z,201.68
2023-01-25T13:05:47.772Z,216.75
2023-01-25T13:08:36.109Z,236.18
2023-01-25T13:11:13.891Z,213.93
2023-01-25T13:13:42.031Z,200.07
2023-01-25T13:16:26.145Z,227.35
2023-01-25T13:18:54.248Z,208.13
2023-01-25T13:21:45.064Z,229.05
2023-01-25T13:24:19.900Z,222.27
2023-01-25T13:27:11.210Z,233.20
2023-01-25T13:29:48.043Z,232.05
2023-01-25T13:32:37.531Z,226.25
2023-01-25T13:35:27.637Z,202.27
2023-01-25T13:38:00.570Z,237.90
2023-01-25T13:40:33.446Z,231.70
2023-01-25T13:43:04.245Z,225.65
2023-01-25T13:45:35.882Z,215.07
2023-01-25T13:48:13.945Z,245.57
2023-01-25T13:50:49.105Z,196.52
2023-01-25T13:53:22.092Z,213.77
2023-01-25T13:55:52.234Z,217.32
2023-01-25T13:58:23.737Z,200.90
2023-01-25T14:00:55.380Z,226.80
2023-01-25T14:03:29.985Z,216.98
2023-01-25T14:06:02.517Z,209.30
2023-01-25T14:08:31.832Z,239.13
2023-01-25T14:11:00.373Z,237.02
2023-01-25T14:13:28.405Z,229.05
2023-01-25T14:15:58.307Z,200.88
2023-01-25T14:18:32.374Z,223.73
2023-01-25T14:21:18.357Z,226.15
2023-01-25T14:23:47.060Z,221.80
2023-01-25T14:26:20.433Z,204.55
2023-01-25T14:28:59.419Z,229.98
2023-01-25T14:31:33.598Z,203.85
2023-01-25T14:34:04.202Z,204.68
2023-01-25T14:36:35.297Z,225.07
2023-01-25T14:39:05.059Z,240.43
2023-01-25T14:41:34.984Z,193.40
2023-01-25T14:44:05.452Z,227.52
2023-01-25T14:46:35.173Z,213.52
2023-01-25T14:49:25.198Z,227.50
2023-01-25T14:52:03.244Z,228.40
2023-01-25T14:54:33.600Z,231.02
2023-01-25T14:57:04.362Z,230.40
2023-01-25T14:59:37.048Z,219.55
2023-01-25T15:02:17.995Z,237.07
2023-01-25T15:04:54.774Z,228.75
2023-01-25T15:07:47.087Z,206.93
2023-01-25T15:10:21.285Z,231.00
2023-01-25T15:13:13.311Z,221.30
2023-01-25T15:15:53.187Z,228.98
2023-01-25T15:18:47.159Z,219.30
2023-01-25T15:21:16.778Z,217.55
2023-01-25T15:23:48.232Z,228.60
2023-01-25T15:26:20.938Z,225.02
2023-01-25T15:28:49.790Z,224.20
2023-01-25T15:31:19.281Z,232.32
2023-01-25T15:33:47.632Z,208.75
2023-01-25T15:36:17.379Z,248.07
2023-01-25T15:38:46.979Z,234.82
2023-01-25T15:41:16.524Z,239.68
2023-01-25T15:43:44.537Z,224.52
2023-01-25T15:46:17.628Z,244.50
2023-01-25T15:48:47.365Z,218.05
2023-01-25T15:51:15.579Z,233.30
2023-01-25T15:53:44.262Z,217.43
2023-01-25T15:56:16.631Z,233.02
2023-01-25T15:58:48.226Z,212.35
2023-01-25T16:01:16.736Z,205.77
2023-01-25T16:03:44.814Z,229.90
2023-01-25T16:06:29.688Z,221.80
2023-01-25T16:08:58.838Z,219.50
2023-01-25T16:11:28.905Z,219.07
2023-01-25T16:13:57.905Z,224.40
2023-01-25T16:16:27.060Z,239.45
2023-01-25T16:18:55.215Z,227.90
2023-01-25T16:21:23.228Z,240.68
2023-01-25T16:23:51.252Z,205.18
2023-01-25T16:26:21.983Z,195.20
2023-01-25T16:28:51.523Z,235.70
2023-01-25T16:31:31.929Z,205.63
2023-01-25T16:34:01.102Z,236.02
2023-01-25T16:36:30.279Z,217.60
2023-01-25T16:39:07.440Z,246.80
2023-01-25T16:41:35.438Z,192.50
2023-01-25T16:44:04.835Z,241.85
2023-01-25T16:46:33.201Z,230.45
2023-01-25T16:49:04.341Z,221.43
2023-01-25T16:51:33.003Z,225.43
2023-01-25T16:54:01.077Z,230.55
2023-01-25T16:56:31.382Z,228.02
2023-01-25T16:59:03.669Z,225.40
2023-01-25T17:01:33.453Z,223.68
2023-01-25T17:04:01.491Z,219.63
2023-01-25T17:06:31.227Z,235.63
2023-01-25T17:09:09.448Z,227.98
2023-01-25T17:11:41.126Z,232.35
2023-01-25T17:14:10.122Z,246.45
2023-01-25T17:16:39.517Z,226.60
2023-01-25T17:19:13.432Z,226.85
2023-01-25T17:21:41.929Z,234.85
2023-01-25T17:24:10.031Z,219.10
2023-01-25T17:26:38.046Z,207.55
2023-01-25T17:29:05.991Z,252.77
2023-01-25T17:31:35.782Z,221.70
2023-01-25T17:34:07.406Z,225.43
2023-01-25T17:36:35.847Z,227.23
2023-01-25T17:39:05.072Z,226.93
2023-01-25T17:41:33.582Z,225.13
2023-01-25T17:44:01.597Z,225.48
2023-01-25T17:46:33.117Z,221.25
2023-01-25T17:49:02.340Z,222.18
2023-01-25T17:51:33.472Z,236.35
2023-01-25T17:54:02.230Z,230.70
2023-01-25T17:56:30.768Z,239.23
2023-01-25T17:59:01.074Z,233.93
2023-01-25T18:01:32.108Z,216.00
2023-01-25T18:04:00.925Z,260.10
2023-01-25T18:06:32.133Z,245.07
2023-01-25T18:09:02.657Z,233.32
2023-01-25T18:11:33.029Z,232.63
2023-01-25T18:14:03.432Z,245.52
2023-01-25T18:18:59.253Z,217.45
2023-01-25T18:21:29.191Z,215.93
2023-01-25T18:23:59.150Z,213.25
2023-01-25T18:28:45.356Z,203.82
2023-01-25T18:31:15.694Z,141.27
2023-01-25T18:33:43.822Z,187.50
2023-01-25T18:36:14.671Z,179.52
2023-01-25T18:38:42.671Z,176.60
2023-01-25T18:42:47.349Z,211.80
2023-01-25T18:45:15.397Z,99.83
